createdAt,value
2023-05-04T00:02:03.288Z,98830.75
2023-05-04T00:04:29.846Z,98832.13
2023-05-04T00:06:56.401Z,98833.88
2023-05-04T00:09:22.868Z,98834.44
2023-05-04T00:11:49.388Z,98834.75
2023-05-04T00:14:16.067Z,98835.56
2023-05-04T00:16:43.265Z,98827.97
2023-05-04T00:19:10.096Z,98821.44
2023-05-04T00:21:36.514Z,98821.94
2023-05-04T00:24:03.126Z,98818.25
2023-05-04T00:26:29.576Z,98817.94
2023-05-04T00:28:56.081Z,98816.44
2023-05-04T00:31:22.726Z,98823.94
2023-05-04T00:33:49.291Z,98810.91
2023-05-04T00:36:16.042Z,98818.75
2023-05-04T00:38:54.217Z,98823.41
2023-05-04T00:41:21.825Z,98815.38
2023-05-04T00:43:49.004Z,98813.84
2023-05-04T00:46:16.083Z,98812.38
2023-05-04T00:48:43.516Z,98808.13
2023-05-04T00:51:14.343Z,98811.16
2023-05-04T00:53:41.874Z,98803.34
2023-05-04T00:56:08.888Z,98799.25
2023-05-04T00:58:35.645Z,98808.72
2023-05-04T01:01:03.532Z,98801.69
2023-05-04T01:03:31.321Z,98803.63
2023-05-04T01:06:24.682Z,98804.63
2023-05-04T01:09:33.149Z,98790.69
2023-05-04T01:12:17.901Z,98802.53
2023-05-04T01:14:44.478Z,98799.63
2023-05-04T01:17:11.819Z,98796.03
2023-05-04T01:19:38.798Z,98798.03
2023-05-04T01:22:05.611Z,98805.16
2023-05-04T01:24:32.871Z,98795.78
2023-05-04T01:27:02.411Z,98798.63
2023-05-04T01:29:38.695Z,98796.31
2023-05-04T01:32:06.480Z,98804.19
2023-05-04T01:34:33.955Z,98807.69
2023-05-04T01:37:00.833Z,98803.59
2023-05-04T01:39:30.022Z,98803.38
2023-05-04T01:41:57.140Z,98804.75
2023-05-04T01:44:23.695Z,98802.53
2023-05-04T01:46:50.217Z,98796.50
2023-05-04T01:49:16.684Z,98802.03
2023-05-04T01:51:43.279Z,98810.09
2023-05-04T01:54:10.251Z,98806.44
2023-05-04T01:56:36.854Z,98809.06
2023-05-04T01:59:04.507Z,98814.28
2023-05-04T02:01:31.070Z,98816.72
2023-05-04T02:03:57.774Z,98814.56
2023-05-04T02:06:24.673Z,98808.97
2023-05-04T02:08:51.293Z,98810.72
2023-05-04T02:11:17.818Z,98809.72
2023-05-04T02:13:44.338Z,98810.97
2023-05-04T02:16:10.941Z,98806.28
2023-05-04T02:18:37.491Z,98812.16
2023-05-04T02:21:04.112Z,98803.50
2023-05-04T02:23:30.697Z,98804.22
2023-05-04T02:25:57.212Z,98809.25
2023-05-04T02:28:23.702Z,98805.63
2023-05-04T02:30:50.265Z,98804.44
2023-05-04T02:33:16.848Z,98803.88
2023-05-04T02:35:43.347Z,98807.25
2023-05-04T02:38:09.897Z,98812.75
2023-05-04T02:40:36.386Z,98810.06
2023-05-04T02:43:02.827Z,98817.19
2023-05-04T02:45:29.337Z,98808.19
2023-05-04T02:47:55.859Z,98819.66
2023-05-04T02:50:22.389Z,98817.06
2023-05-04T02:52:48.886Z,98814.63
2023-05-04T02:55:15.839Z,98816.38
2023-05-04T02:57:42.332Z,98810.41
2023-05-04T03:00:09.329Z,98803.59
2023-05-04T03:02:35.907Z,98802.22
2023-05-04T03:05:02.870Z,98809.47
2023-05-04T03:07:29.606Z,98809.38
2023-05-04T03:09:56.115Z,98794.72
2023-05-04T03:12:22.609Z,98797.22
2023-05-04T03:14:49.071Z,98792.44
2023-05-04T03:17:15.658Z,98790.47
2023-05-04T03:19:42.349Z,98787.63
2023-05-04T03:22:08.857Z,98783.41
2023-05-04T03:24:37.039Z,98786.00
2023-05-04T03:27:03.791Z,98784.34
2023-05-04T03:29:30.307Z,98791.13
2023-05-04T03:31:56.941Z,98790.91
2023-05-04T03:34:23.481Z,98791.13
2023-05-04T03:36:50.069Z,98786.72
2023-05-04T03:39:17.769Z,98792.91
2023-05-04T03:41:44.317Z,98787.91
2023-05-04T03:44:10.892Z,98789.66
2023-05-04T03:46:37.491Z,98786.72
2023-05-04T03:49:04.106Z,98772.47
2023-05-04T03:51:30.582Z,98773.50
2023-05-04T03:53:57.064Z,98780.28
2023-05-04T03:56:23.525Z,98779.03
2023-05-04T03:58:49.974Z,98777.09
2023-05-04T04:01:16.450Z,98781.28
2023-05-04T04:03:43.044Z,98782.00
2023-05-04T04:06:10.576Z,98783.97
2023-05-04T04:08:37.254Z,98787.94
2023-05-04T04:11:03.767Z,98791.16
2023-05-04T04:13:30.417Z,98793.72
2023-05-04T04:15:56.977Z,98795.94
2023-05-04T04:18:24.499Z,98799.09
2023-05-04T04:20:51.094Z,98792.88
2023-05-04T04:23:21.647Z,98795.13
2023-05-04T04:25:48.285Z,98792.75
2023-05-04T04:28:14.886Z,98797.06
2023-05-04T04:30:41.760Z,98800.50
2023-05-04T04:33:08.862Z,98795.56
2023-05-04T04:35:35.760Z,98797.69
2023-05-04T04:38:03.785Z,98798.97
2023-05-04T04:40:30.637Z,98795.03
2023-05-04T04:42:57.263Z,98800.25
2023-05-04T04:45:24.124Z,98804.22
2023-05-04T04:47:51.191Z,98804.09
2023-05-04T04:50:18.191Z,98810.75
2023-05-04T04:52:45.422Z,98807.38
2023-05-04T04:55:12.190Z,98798.97
2023-05-04T04:57:38.696Z,98802.94
2023-05-04T05:00:10.065Z,98800.34
2023-05-04T05:02:37.001Z,98803.09
2023-05-04T05:05:03.967Z,98809.41
2023-05-04T05:07:30.711Z,98804.72
2023-05-04T05:09:57.213Z,98799.63
2023-05-04T05:12:23.723Z,98800.44
2023-05-04T05:14:50.882Z,98801.66
2023-05-04T05:17:18.065Z,98798.06
2023-05-04T05:19:44.502Z,98798.53
2023-05-04T05:22:11.014Z,98795.81
2023-05-04T05:24:37.545Z,98793.06
2023-05-04T05:27:04.100Z,98794.75
2023-05-04T05:29:31.056Z,98795.88
2023-05-04T05:31:57.603Z,98795.41
2023-05-04T05:34:24.116Z,98797.03
2023-05-04T05:36:50.567Z,98805.59
2023-05-04T05:39:17.699Z,98806.91
2023-05-04T05:41:44.258Z,98805.88
2023-05-04T05:44:12.921Z,98808.28
2023-05-04T05:46:40.037Z,98811.81
2023-05-04T05:49:07.442Z,98797.31
2023-05-04T05:51:34.050Z,98810.22
2023-05-04T05:54:00.882Z,98799.66
2023-05-04T05:56:27.364Z,98794.38
2023-05-04T05:58:53.885Z,98800.47
2023-05-04T06:01:20.350Z,98795.94
2023-05-04T06:03:47.094Z,98794.13
2023-05-04T06:06:13.891Z,98788.72
2023-05-04T06:08:41.514Z,98782.53
2023-05-04T06:11:08.003Z,98778.69
2023-05-04T06:13:34.517Z,98777.59
2023-05-04T06:16:01.041Z,98761.31
2023-05-04T06:18:27.505Z,98763.13
2023-05-04T06:21:01.245Z,98766.38
2023-05-04T06:23:31.334Z,98761.78
2023-05-04T06:25:58.091Z,98766.91
2023-05-04T06:28:24.801Z,98767.03
2023-05-04T06:30:51.497Z,98758.84
2023-05-04T06:33:17.952Z,98759.44
2023-05-04T06:35:45.434Z,98765.44
2023-05-04T06:38:12.034Z,98765.97
2023-05-04T06:40:38.552Z,98760.78
2023-05-04T06:43:05.216Z,98758.88
2023-05-04T06:45:34.597Z,98751.59
2023-05-04T06:48:01.325Z,98748.69
2023-05-04T06:50:27.924Z,98751.63
2023-05-04T06:53:07.808Z,98755.78
2023-05-04T06:55:34.888Z,98753.34
2023-05-04T06:58:01.545Z,98751.34
2023-05-04T07:00:28.238Z,98751.47
2023-05-04T07:02:55.075Z,98743.31
2023-05-04T07:05:22.361Z,98746.88
2023-05-04T07:07:51.258Z,98750.22
2023-05-04T07:10:19.610Z,98752.47
2023-05-04T07:12:46.817Z,98748.84
2023-05-04T07:15:13.553Z,98743.13
2023-05-04T07:17:40.430Z,98750.66
2023-05-04T07:20:07.988Z,98740.34
2023-05-04T07:22:34.826Z,98745.72
2023-05-04T07:25:01.855Z,98740.69
2023-05-04T07:27:28.303Z,98731.94
2023-05-04T07:29:55.340Z,98726.59
2023-05-04T07:32:22.030Z,98730.78
2023-05-04T07:34:48.633Z,98720.28
2023-05-04T07:37:19.001Z,98716.03
2023-05-04T07:39:45.545Z,98715.31
2023-05-04T07:42:12.247Z,98723.84
2023-05-04T07:44:38.978Z,98714.56
2023-05-04T07:47:05.678Z,98715.25
2023-05-04T07:49:32.847Z,98715.63
2023-05-04T07:51:59.652Z,98713.13
2023-05-04T07:54:26.179Z,98717.22
2023-05-04T07:56:52.691Z,98712.13
2023-05-04T07:59:19.540Z,98722.94
2023-05-04T08:01:46.628Z,98724.88
2023-05-04T08:04:13.189Z,98724.81
2023-05-04T08:06:39.841Z,98727.50
2023-05-04T08:09:06.650Z,98741.34
2023-05-04T08:11:34.758Z,98731.94
2023-05-04T08:14:01.734Z,98735.50
2023-05-04T08:16:29.288Z,98728.44
2023-05-04T08:18:57.100Z,98738.47
2023-05-04T08:21:23.635Z,98727.44
2023-05-04T08:23:50.157Z,98734.50
2023-05-04T08:26:17.160Z,98719.88
2023-05-04T08:28:45.701Z,98729.84
2023-05-04T08:31:13.247Z,98725.75
2023-05-04T08:33:39.913Z,98733.00
2023-05-04T08:36:08.160Z,98724.41
2023-05-04T08:38:35.113Z,98722.66
2023-05-04T08:41:05.909Z,98726.00
2023-05-04T08:43:36.326Z,98717.06
2023-05-04T08:46:04.870Z,98719.28
2023-05-04T08:48:33.639Z,98720.75
2023-05-04T08:51:01.173Z,98719.91
2023-05-04T08:53:29.924Z,98720.59
2023-05-04T08:55:59.145Z,98717.97
2023-05-04T08:58:27.623Z,98722.13
2023-05-04T09:00:55.821Z,98715.97
2023-05-04T09:03:23.336Z,98725.94
2023-05-04T09:05:51.000Z,98721.25
2023-05-04T09:08:17.999Z,98720.91
2023-05-04T09:10:44.517Z,98721.69
2023-05-04T09:13:11.271Z,98706.25
2023-05-04T09:15:37.947Z,98719.00
2023-05-04T09:18:06.483Z,98706.94
2023-05-04T09:20:47.382Z,98711.84
2023-05-04T09:23:15.524Z,98713.88
2023-05-04T09:25:55.293Z,98708.63
2023-05-04T09:28:43.570Z,98702.78
2023-05-04T09:31:11.913Z,98693.91
2023-05-04T09:33:38.556Z,98709.84
2023-05-04T09:36:21.946Z,98708.38
2023-05-04T09:38:48.831Z,98696.53
2023-05-04T09:41:15.467Z,98696.91
2023-05-04T09:43:44.026Z,98690.63
2023-05-04T09:46:18.299Z,98690.50
2023-05-04T09:48:56.692Z,98686.66
2023-05-04T09:51:24.762Z,98695.06
2023-05-04T09:53:52.014Z,98676.78
2023-05-04T09:56:52.387Z,98685.31
2023-05-04T09:59:20.837Z,98678.53
2023-05-04T10:01:47.921Z,98688.59
2023-05-04T10:04:14.595Z,98692.03
2023-05-04T10:06:43.231Z,98684.75
2023-05-04T10:09:11.575Z,98683.59
2023-05-04T10:11:38.342Z,98679.03
2023-05-04T10:14:04.871Z,98675.13
2023-05-04T10:16:45.043Z,98675.94
2023-05-04T10:19:23.675Z,98666.28
2023-05-04T10:21:58.911Z,98668.75
2023-05-04T10:25:12.292Z,98657.06
2023-05-04T10:28:02.136Z,98660.31
2023-05-04T10:30:29.401Z,98650.16
2023-05-04T10:32:59.591Z,98651.34
2023-05-04T10:35:26.968Z,98646.53
2023-05-04T10:37:54.872Z,98644.84
2023-05-04T10:40:40.930Z,98640.19
2023-05-04T10:43:08.745Z,98645.88
2023-05-04T10:45:39.663Z,98637.66
2023-05-04T10:48:08.089Z,98624.47
2023-05-04T10:50:49.544Z,98626.84
2023-05-04T10:53:17.778Z,98618.16
2023-05-04T10:55:48.605Z,98612.53
2023-05-04T10:58:21.500Z,98610.53
2023-05-04T11:00:51.623Z,98606.91
2023-05-04T11:03:19.282Z,98609.38
2023-05-04T11:05:50.812Z,98595.75
2023-05-04T11:08:19.591Z,98597.38
2023-05-04T11:10:47.896Z,98601.00
2023-05-04T11:13:16.225Z,98598.91
2023-05-04T11:15:50.255Z,98589.41
2023-05-04T11:18:29.257Z,98599.16
2023-05-04T11:20:56.197Z,98594.88
2023-05-04T11:23:23.302Z,98592.41
2023-05-04T11:25:50.827Z,98587.84
2023-05-04T11:28:17.463Z,98573.34
2023-05-04T11:30:46.193Z,98583.50
2023-05-04T11:33:14.327Z,98574.16
2023-05-04T11:35:42.425Z,98571.59
2023-05-04T11:38:09.068Z,98568.00
2023-05-04T11:40:37.439Z,98556.34
2023-05-04T11:43:04.298Z,98556.41
2023-05-04T11:45:34.717Z,98558.84
2023-05-04T11:48:02.113Z,98562.03
2023-05-04T11:50:29.276Z,98560.53
2023-05-04T11:53:08.961Z,98557.69
2023-05-04T11:55:36.087Z,98565.75
2023-05-04T11:58:07.934Z,98563.97
2023-05-04T12:00:46.933Z,98549.56
2023-05-04T12:03:15.724Z,98550.13
2023-05-04T12:05:51.185Z,98558.06
2023-05-04T12:08:29.953Z,98543.88
2023-05-04T12:11:09.072Z,98540.59
2023-05-04T12:13:36.108Z,98543.41
2023-05-04T12:16:28.752Z,98537.41
2023-05-04T12:19:21.678Z,98541.03
2023-05-04T12:21:53.336Z,98539.47
2023-05-04T12:24:22.518Z,98527.50
2023-05-04T12:26:49.673Z,98532.13
2023-05-04T12:29:16.687Z,98522.88
2023-05-04T12:31:43.182Z,98523.31
2023-05-04T12:34:09.627Z,98523.06
2023-05-04T12:36:36.120Z,98509.22
2023-05-04T12:39:02.629Z,98511.44
2023-05-04T12:41:29.144Z,98505.19
2023-05-04T12:43:55.974Z,98504.38
2023-05-04T12:46:22.849Z,98490.38
2023-05-04T12:48:49.474Z,98499.22
2023-05-04T12:51:16.151Z,98480.53
2023-05-04T12:53:43.707Z,98481.66
2023-05-04T12:56:10.222Z,98483.59
2023-05-04T12:58:36.745Z,98478.91
2023-05-04T13:01:03.744Z,98475.75
2023-05-04T13:03:30.417Z,98481.31
2023-05-04T13:05:57.952Z,98479.72
2023-05-04T13:08:24.970Z,98468.47
2023-05-04T13:10:52.155Z,98465.38
2023-05-04T13:13:19.234Z,98455.63
2023-05-04T13:15:50.030Z,98461.34
2023-05-04T13:18:16.807Z,98455.72
2023-05-04T13:20:43.431Z,98443.41
2023-05-04T13:23:09.954Z,98442.59
2023-05-04T13:25:36.444Z,98447.03
2023-05-04T13:28:03.514Z,98445.94
2023-05-04T13:30:29.999Z,98438.47
2023-05-04T13:32:56.686Z,98440.88
2023-05-04T13:35:23.866Z,98436.16
2023-05-04T13:37:50.861Z,98435.84
2023-05-04T13:40:17.411Z,98435.09
2023-05-04T13:42:44.065Z,98438.25
2023-05-04T13:45:10.867Z,98438.78
2023-05-04T13:47:37.760Z,98442.88
2023-05-04T13:50:04.936Z,98436.22
2023-05-04T13:52:32.445Z,98421.00
2023-05-04T13:54:59.665Z,98429.09
2023-05-04T13:57:29.760Z,98420.34
2023-05-04T14:00:06.678Z,98418.41
2023-05-04T14:02:34.015Z,98415.25
2023-05-04T14:05:01.395Z,98420.53
2023-05-04T14:07:27.934Z,98414.94
2023-05-04T14:09:56.039Z,98409.56
2023-05-04T14:12:22.809Z,98401.19
2023-05-04T14:14:50.707Z,98404.34
2023-05-04T14:17:17.543Z,98389.69
2023-05-04T14:19:44.729Z,98391.78
2023-05-04T14:22:11.234Z,98381.31
2023-05-04T14:24:37.830Z,98371.03
2023-05-04T14:27:04.401Z,98370.06
2023-05-04T14:29:32.303Z,98361.25
2023-05-04T14:31:58.919Z,98363.34
2023-05-04T14:34:25.553Z,98368.88
2023-05-04T14:37:09.181Z,98366.06
2023-05-04T14:39:36.578Z,98372.06
2023-05-04T14:42:03.243Z,98370.50
2023-05-04T14:44:30.123Z,98360.94
2023-05-04T14:46:56.856Z,98358.91
2023-05-04T14:49:35.518Z,98358.28
2023-05-04T14:52:03.809Z,98359.75
2023-05-04T14:54:30.352Z,98361.84
2023-05-04T14:56:57.105Z,98359.53
2023-05-04T14:59:23.621Z,98353.00
2023-05-04T15:01:50.252Z,98350.00
2023-05-04T15:04:17.140Z,98345.94
2023-05-04T15:06:43.591Z,98347.25
2023-05-04T15:09:10.029Z,98344.94
2023-05-04T15:11:36.704Z,98355.81
2023-05-04T15:14:03.446Z,98347.56
2023-05-04T15:16:32.424Z,98344.25
2023-05-04T15:18:59.394Z,98341.03
2023-05-04T15:21:26.363Z,98342.16
2023-05-04T15:23:52.895Z,98348.97
2023-05-04T15:26:19.449Z,98340.47
2023-05-04T15:28:46.021Z,98343.06
2023-05-04T15:31:13.037Z,98349.88
2023-05-04T15:33:39.492Z,98336.06
2023-05-04T15:36:07.963Z,98345.41
2023-05-04T15:38:35.134Z,98343.44
2023-05-04T15:41:02.190Z,98344.00
2023-05-04T15:43:29.559Z,98345.34
2023-05-04T15:45:56.078Z,98350.50
2023-05-04T15:48:22.602Z,98350.09
2023-05-04T15:50:49.431Z,98349.94
2023-05-04T15:53:15.998Z,98353.22
2023-05-04T15:55:42.590Z,98360.69
2023-05-04T15:58:10.671Z,98342.47
2023-05-04T16:00:38.266Z,98345.31
2023-05-04T16:03:08.108Z,98341.06
2023-05-04T16:05:34.925Z,98340.72
2023-05-04T16:08:01.855Z,98339.00
2023-05-04T16:10:28.286Z,98333.16
2023-05-04T16:12:54.817Z,98338.03
2023-05-04T16:15:21.507Z,98332.81
2023-05-04T16:17:47.944Z,98338.81
2023-05-04T16:20:14.467Z,98332.41
2023-05-04T16:22:41.014Z,98345.13
2023-05-04T16:25:08.832Z,98335.22
2023-05-04T16:27:36.798Z,98328.25
2023-05-04T16:30:03.449Z,98334.44
2023-05-04T16:32:29.942Z,98337.19
2023-05-04T16:34:56.427Z,98334.50
2023-05-04T16:37:22.911Z,98340.66
2023-05-04T16:39:49.349Z,98336.25
2023-05-04T16:42:15.935Z,98338.22
2023-05-04T16:44:42.442Z,98342.00
2023-05-04T16:47:08.996Z,98333.06
2023-05-04T16:49:35.491Z,98333.19
2023-05-04T16:52:03.306Z,98334.13
2023-05-04T16:54:29.973Z,98343.16
2023-05-04T16:56:56.669Z,98347.09
2023-05-04T16:59:23.459Z,98348.47
2023-05-04T17:01:50.103Z,98343.75
2023-05-04T17:04:16.753Z,98346.06
2023-05-04T17:06:43.322Z,98346.38
2023-05-04T17:09:09.916Z,98350.63
2023-05-04T17:11:36.486Z,98344.91
2023-05-04T17:14:03.591Z,98344.47
2023-05-04T17:16:30.161Z,98348.59
2023-05-04T17:18:56.660Z,98348.38
2023-05-04T17:21:23.204Z,98351.22
2023-05-04T17:23:49.656Z,98350.41
2023-05-04T17:26:16.100Z,98349.97
2023-05-04T17:28:42.901Z,98355.78
2023-05-04T17:31:12.578Z,98361.53
2023-05-04T17:33:39.684Z,98360.94
2023-05-04T17:36:07.709Z,98368.84
2023-05-04T17:38:34.374Z,98364.59
2023-05-04T17:41:00.929Z,98368.06
2023-05-04T17:43:27.409Z,98370.59
2023-05-04T17:45:55.809Z,98372.16
2023-05-04T17:48:24.088Z,98385.69
2023-05-04T17:50:51.117Z,98385.31
2023-05-04T17:53:17.559Z,98385.84
2023-05-04T17:55:44.104Z,98385.84
2023-05-04T17:58:10.839Z,98385.34
2023-05-04T18:00:37.445Z,98390.66
2023-05-04T18:03:04.324Z,98397.72
2023-05-04T18:05:32.010Z,98387.66
2023-05-04T18:07:58.674Z,98396.22
2023-05-04T18:10:25.276Z,98398.38
2023-05-04T18:12:51.802Z,98404.47
2023-05-04T18:15:18.540Z,98396.28
2023-05-04T18:17:45.095Z,98414.09
2023-05-04T18:20:13.101Z,98417.03
2023-05-04T18:22:39.663Z,98416.13
2023-05-04T18:25:06.807Z,98420.53
2023-05-04T18:27:34.629Z,98426.53
2023-05-04T18:30:02.182Z,98429.47
2023-05-04T18:32:28.884Z,98432.63
2023-05-04T18:34:57.821Z,98429.28
2023-05-04T18:37:25.017Z,98436.44
2023-05-04T18:39:51.560Z,98447.13
2023-05-04T18:42:18.054Z,98452.81
2023-05-04T18:44:44.549Z,98470.53
2023-05-04T18:47:11.364Z,98470.03
2023-05-04T18:49:38.171Z,98470.75
2023-05-04T18:52:05.063Z,98473.03
2023-05-04T18:54:32.345Z,98481.28
2023-05-04T18:56:59.242Z,98479.53
2023-05-04T18:59:25.942Z,98487.66
2023-05-04T19:01:53.066Z,98491.81
2023-05-04T19:04:19.689Z,98502.34
2023-05-04T19:06:47.649Z,98509.81
2023-05-04T19:09:14.883Z,98511.25
2023-05-04T19:11:41.439Z,98516.44
2023-05-04T19:14:08.009Z,98519.84
2023-05-04T19:16:34.507Z,98515.16
2023-05-04T19:19:00.969Z,98525.97
2023-05-04T19:21:28.473Z,98519.97
2023-05-04T19:23:55.126Z,98527.72
2023-05-04T19:26:21.904Z,98530.13
2023-05-04T19:28:48.396Z,98524.16
2023-05-04T19:31:15.489Z,98527.19
2023-05-04T19:33:48.594Z,98539.94
2023-05-04T19:36:17.003Z,98536.38
2023-05-04T19:38:43.800Z,98536.53
2023-05-04T19:41:10.415Z,98538.00
2023-05-04T19:43:38.455Z,98538.31
2023-05-04T19:46:05.060Z,98545.06
2023-05-04T19:48:31.849Z,98554.44
2023-05-04T19:50:58.435Z,98564.41
2023-05-04T19:53:25.255Z,98556.50
2023-05-04T19:55:52.913Z,98565.69
2023-05-04T19:58:19.501Z,98561.66
2023-05-04T20:00:46.078Z,98566.31
2023-05-04T20:03:12.588Z,98567.28
2023-05-04T20:05:39.415Z,98582.06
2023-05-04T20:08:05.837Z,98574.16
2023-05-04T20:10:32.421Z,98584.13
2023-05-04T20:12:59.034Z,98584.59
2023-05-04T20:15:25.986Z,98581.00
2023-05-04T20:17:52.718Z,98585.81
2023-05-04T20:20:21.492Z,98594.28
2023-05-04T20:22:52.184Z,98589.97
2023-05-04T20:25:19.940Z,98588.09
2023-05-04T20:27:48.563Z,98581.84
2023-05-04T20:30:15.424Z,98578.56
2023-05-04T20:32:42.613Z,98584.63
2023-05-04T20:35:09.435Z,98578.53
2023-05-04T20:37:35.992Z,98583.22
2023-05-04T20:40:02.551Z,98582.16
2023-05-04T20:42:29.380Z,98582.41
2023-05-04T20:44:55.863Z,98590.44
2023-05-04T20:47:22.613Z,98594.31
2023-05-04T20:49:49.229Z,98594.13
2023-05-04T20:52:16.044Z,98592.22
2023-05-04T20:54:42.494Z,98589.69
2023-05-04T20:57:09.077Z,98591.28
2023-05-04T20:59:35.575Z,98591.91
2023-05-04T21:02:02.048Z,98587.66
2023-05-04T21:04:28.569Z,98587.88
2023-05-04T21:06:56.926Z,98597.38
2023-05-04T21:09:23.452Z,98585.03
2023-05-04T21:11:50.012Z,98596.38
2023-05-04T21:14:16.520Z,98592.59
2023-05-04T21:16:43.014Z,98590.47
2023-05-04T21:19:09.595Z,98589.06
2023-05-04T21:21:40.617Z,98590.28
2023-05-04T21:24:12.153Z,98584.09
2023-05-04T21:26:39.107Z,98586.84
2023-05-04T21:29:05.826Z,98588.03
2023-05-04T21:31:33.274Z,98598.88
2023-05-04T21:33:59.912Z,98590.69
2023-05-04T21:36:27.432Z,98594.72
2023-05-04T21:38:55.248Z,98590.69
2023-05-04T21:41:22.240Z,98597.63
2023-05-04T21:43:48.752Z,98598.16
2023-05-04T21:46:15.561Z,98595.22
2023-05-04T21:48:42.189Z,98589.25
2023-05-04T21:51:08.890Z,98594.69
2023-05-04T21:53:35.580Z,98584.41
2023-05-04T21:56:06.503Z,98597.75
2023-05-04T21:58:33.134Z,98593.91
2023-05-04T22:00:59.816Z,98597.91
2023-05-04T22:03:28.475Z,98601.25
2023-05-04T22:05:57.681Z,98599.13
2023-05-04T22:08:25.140Z,98595.91
2023-05-04T22:10:53.635Z,98600.41
2023-05-04T22:13:20.164Z,98595.19
2023-05-04T22:15:50.295Z,98608.63
2023-05-04T22:18:17.312Z,98608.88
2023-05-04T22:20:43.862Z,98606.16
2023-05-04T22:23:10.553Z,98613.22
2023-05-04T22:25:37.073Z,98612.84
2023-05-04T22:28:03.823Z,98610.56
2023-05-04T22:30:30.493Z,98612.28
2023-05-04T22:32:57.562Z,98615.19
2023-05-04T22:35:24.279Z,98616.38
2023-05-04T22:37:50.958Z,98609.41
2023-05-04T22:40:17.585Z,98611.72
2023-05-04T22:42:47.568Z,98618.09
2023-05-04T22:45:14.861Z,98626.66
2023-05-04T22:47:42.260Z,98631.19
2023-05-04T22:50:10.452Z,98633.03
2023-05-04T22:52:38.102Z,98624.72
2023-05-04T22:55:05.755Z,98624.72
2023-05-04T22:57:32.347Z,98629.22
2023-05-04T22:59:58.851Z,98632.94
2023-05-04T23:02:25.697Z,98632.47
2023-05-04T23:04:53.226Z,98627.38
2023-05-04T23:07:19.825Z,98624.97
2023-05-04T23:09:47.056Z,98635.25
2023-05-04T23:12:14.438Z,98638.56
2023-05-04T23:14:41.640Z,98640.78
2023-05-04T23:17:08.518Z,98635.91
2023-05-04T23:19:35.026Z,98638.56
2023-05-04T23:22:01.556Z,98638.06
2023-05-04T23:24:28.086Z,98642.97
2023-05-04T23:26:54.528Z,98652.31
2023-05-04T23:29:21.158Z,98652.06
2023-05-04T23:31:47.696Z,98654.69
2023-05-04T23:34:14.152Z,98646.94
2023-05-04T23:36:40.737Z,98653.28
2023-05-04T23:39:07.332Z,98645.13
2023-05-04T23:41:34.178Z,98651.63
2023-05-04T23:44:01.513Z,98653.91
2023-05-04T23:46:28.002Z,98651.78
2023-05-04T23:48:54.537Z,98646.00
2023-05-04T23:51:21.329Z,98651.06
2023-05-04T23:53:47.913Z,98657.69
2023-05-04T23:56:14.844Z,98646.00
2023-05-04T23:58:41.706Z,98646.22
